createdAt,value
2019-05-29T00:01:56.906Z,12.10
2019-05-29T00:04:41.402Z,12.10
2019-05-29T00:07:38.756Z,12.10
2019-05-29T00:10:16.354Z,12.10
2019-05-29T00:12:53.898Z,12.10
2019-05-29T00:15:31.473Z,12.00
2019-05-29T00:18:10.281Z,12.00
2019-05-29T00:20:46.678Z,12.00
2019-05-29T00:23:24.312Z,12.00
2019-05-29T00:26:01.927Z,12.00
2019-05-29T00:28:39.445Z,12.00
2019-05-29T00:31:18.144Z,12.00
2019-05-29T00:33:54.498Z,12.00
2019-05-29T00:36:32.203Z,12.00
2019-05-29T00:39:11.081Z,12.00
2019-05-29T00:41:48.666Z,12.10
2019-05-29T00:44:34.480Z,12.10
2019-05-29T00:47:11.546Z,12.10
2019-05-29T00:50:00.578Z,12.10
2019-05-29T00:52:39.551Z,12.00
2019-05-29T00:55:31.136Z,12.00
2019-05-29T00:58:12.819Z,11.90
2019-05-29T01:00:58.949Z,11.90
2019-05-29T01:03:42.016Z,11.90
2019-05-29T01:06:25.125Z,11.90
2019-05-29T01:09:20.703Z,11.90
2019-05-29T01:12:09.385Z,11.90
2019-05-29T01:15:03.387Z,11.90
2019-05-29T01:17:43.455Z,11.90
2019-05-29T01:20:21.997Z,11.90
2019-05-29T01:22:58.615Z,11.90
2019-05-29T01:25:36.206Z,11.90
2019-05-29T01:28:14.701Z,11.80
2019-05-29T01:30:51.801Z,11.70
2019-05-29T01:33:29.306Z,11.60
2019-05-29T01:36:06.856Z,11.60
2019-05-29T01:38:44.396Z,11.50
2019-05-29T01:41:21.976Z,11.40
2019-05-29T01:43:59.774Z,11.40
2019-05-29T01:46:37.381Z,11.40
2019-05-29T01:49:16.027Z,11.40
2019-05-29T01:51:52.852Z,11.40
2019-05-29T01:54:33.214Z,11.40
2019-05-29T01:57:17.750Z,11.40
2019-05-29T01:59:59.898Z,11.30
2019-05-29T02:02:43.994Z,11.30
2019-05-29T02:05:33.583Z,11.20
2019-05-29T02:08:28.280Z,11.20
2019-05-29T02:11:19.209Z,11.20
2019-05-29T02:14:12.974Z,11.10
2019-05-29T02:17:00.214Z,11.10
2019-05-29T02:19:51.202Z,11.10
2019-05-29T02:22:28.847Z,11.10
2019-05-29T02:25:06.346Z,11.10
2019-05-29T02:27:43.906Z,11.10
2019-05-29T02:30:23.536Z,11.10
2019-05-29T02:32:58.974Z,11.10
2019-05-29T02:35:36.514Z,11.10
2019-05-29T02:38:14.329Z,11.10
2019-05-29T02:40:51.885Z,11.10
2019-05-29T02:43:30.129Z,11.10
2019-05-29T02:46:07.220Z,11.10
2019-05-29T02:48:46.111Z,11.10
2019-05-29T02:51:30.516Z,11.10
2019-05-29T02:54:20.168Z,11.00
2019-05-29T02:57:08.589Z,11.00
2019-05-29T02:59:53.604Z,11.00
2019-05-29T03:02:45.478Z,11.00
2019-05-29T03:05:43.609Z,11.00
2019-05-29T03:08:22.359Z,11.00
2019-05-29T03:11:23.055Z,11.00
2019-05-29T03:14:02.315Z,11.00
2019-05-29T03:16:44.083Z,11.00
2019-05-29T03:19:21.529Z,11.00
2019-05-29T03:21:59.083Z,11.00
2019-05-29T03:24:36.594Z,11.00
2019-05-29T03:27:14.105Z,11.10
2019-05-29T03:29:51.687Z,11.10
2019-05-29T03:32:32.375Z,11.10
2019-05-29T03:35:07.136Z,11.10
2019-05-29T03:37:44.744Z,11.10
2019-05-29T03:40:22.264Z,11.10
2019-05-29T03:42:59.970Z,11.10
2019-05-29T03:45:38.027Z,11.10
2019-05-29T03:48:15.065Z,11.10
2019-05-29T03:50:52.560Z,11.10
2019-05-29T03:53:35.894Z,11.10
2019-05-29T03:56:16.518Z,11.10
2019-05-29T03:59:09.124Z,11.10
2019-05-29T04:02:14.506Z,11.00
2019-05-29T04:05:07.400Z,11.00
2019-05-29T04:08:08.241Z,10.90
2019-05-29T04:10:46.623Z,10.90
2019-05-29T04:13:29.570Z,10.90
2019-05-29T04:16:13.306Z,11.00
2019-05-29T04:18:52.471Z,11.00
2019-05-29T04:21:32.155Z,11.00
2019-05-29T04:24:10.708Z,11.10
2019-05-29T04:26:48.299Z,11.10
2019-05-29T04:29:27.940Z,11.10
2019-05-29T04:32:07.874Z,11.20
2019-05-29T04:34:45.459Z,11.20
2019-05-29T04:37:23.107Z,11.20
2019-05-29T04:40:02.103Z,11.30
2019-05-29T04:42:41.237Z,11.30
2019-05-29T04:45:18.620Z,11.40
2019-05-29T04:47:56.203Z,11.50
2019-05-29T04:50:36.481Z,11.60
2019-05-29T04:53:29.239Z,11.70
2019-05-29T04:56:10.064Z,11.70
2019-05-29T04:59:06.814Z,11.70
2019-05-29T05:01:49.922Z,11.70
2019-05-29T05:04:39.417Z,11.70
2019-05-29T05:07:22.916Z,11.70
2019-05-29T05:10:08.190Z,11.70
2019-05-29T05:12:56.050Z,11.80
2019-05-29T05:15:40.765Z,11.70
2019-05-29T05:18:32.002Z,11.70
2019-05-29T05:21:11.585Z,11.80
2019-05-29T05:23:49.720Z,11.90
2019-05-29T05:26:27.139Z,11.90
2019-05-29T05:29:05.089Z,11.90
2019-05-29T05:31:42.599Z,12.00
2019-05-29T05:34:20.206Z,12.00
2019-05-29T05:36:57.754Z,12.10
2019-05-29T05:39:35.284Z,12.20
2019-05-29T05:42:12.883Z,12.20
2019-05-29T05:44:53.533Z,12.20
2019-05-29T05:47:44.986Z,12.30
2019-05-29T05:50:15.145Z,12.30
2019-05-29T05:52:59.149Z,12.30
2019-05-29T05:55:42.850Z,12.30
2019-05-29T05:58:24.204Z,12.30
2019-05-29T06:01:20.417Z,12.30
2019-05-29T06:04:05.115Z,12.20
2019-05-29T06:06:49.333Z,12.30
2019-05-29T06:09:36.153Z,12.40
2019-05-29T06:12:34.496Z,12.50
2019-05-29T06:15:22.553Z,12.50
2019-05-29T06:18:17.168Z,12.80
2019-05-29T06:20:32.842Z,12.90
2019-05-29T06:23:20.962Z,13.10
2019-05-29T06:26:00.074Z,13.10
2019-05-29T06:29:02.828Z,13.20
2019-05-29T06:32:04.457Z,13.40
2019-05-29T06:34:59.472Z,13.50
2019-05-29T06:37:55.504Z,13.60
2019-05-29T06:41:01.955Z,13.60
2019-05-29T06:43:53.685Z,13.50
2019-05-29T06:46:50.433Z,13.50
2019-05-29T06:49:46.274Z,13.40
2019-05-29T06:53:01.244Z,13.20
2019-05-29T06:55:52.942Z,13.00
2019-05-29T06:58:34.050Z,12.80
2019-05-29T07:01:19.317Z,12.70
2019-05-29T07:07:31.540Z,12.80
2019-05-29T07:10:20.609Z,13.00
2019-05-29T07:13:11.862Z,12.90
2019-05-29T07:16:01.564Z,12.90
2019-05-29T07:19:23.866Z,12.90
2019-05-29T07:21:38.806Z,12.90
2019-05-29T07:24:17.833Z,12.90
2019-05-29T07:26:55.363Z,13.10
2019-05-29T07:29:32.905Z,13.40
2019-05-29T07:32:10.575Z,13.50
2019-05-29T07:35:02.091Z,13.40
2019-05-29T07:37:32.325Z,13.30
2019-05-29T07:40:21.297Z,13.10
2019-05-29T07:43:08.466Z,13.00
2019-05-29T07:45:49.582Z,12.90
2019-05-29T07:48:35.406Z,12.90
2019-05-29T07:51:20.220Z,12.70
2019-05-29T07:54:14.439Z,12.70
2019-05-29T07:57:01.950Z,12.80
2019-05-29T07:59:42.686Z,12.80
2019-05-29T08:02:19.182Z,12.80
2019-05-29T08:05:09.101Z,12.80
2019-05-29T08:07:45.455Z,12.80
2019-05-29T08:10:21.960Z,12.80
2019-05-29T08:12:59.513Z,12.80
2019-05-29T08:15:52.071Z,12.90
2019-05-29T08:18:14.633Z,13.00
2019-05-29T08:20:52.350Z,13.10
2019-05-29T08:23:34.554Z,13.10
2019-05-29T08:26:12.006Z,13.20
2019-05-29T08:28:50.948Z,13.30
2019-05-29T08:31:27.309Z,13.40
2019-05-29T08:34:04.900Z,13.50
2019-05-29T08:37:05.919Z,13.60
2019-05-29T08:39:36.627Z,13.60
2019-05-29T08:42:27.104Z,13.80
2019-05-29T08:45:09.374Z,13.90
2019-05-29T08:47:51.968Z,13.90
2019-05-29T08:50:36.186Z,13.80
2019-05-29T08:53:27.674Z,13.80
2019-05-29T08:56:15.717Z,13.80
2019-05-29T08:59:19.132Z,13.70
2019-05-29T09:01:59.490Z,13.70
2019-05-29T09:04:44.855Z,13.70
2019-05-29T09:07:28.972Z,13.80
2019-05-29T09:10:01.674Z,13.80
2019-05-29T09:12:39.185Z,13.90
2019-05-29T09:15:21.122Z,14.00
2019-05-29T09:17:54.301Z,14.10
2019-05-29T09:20:57.251Z,14.30
2019-05-29T09:23:09.426Z,14.50
2019-05-29T09:25:47.066Z,14.70
2019-05-29T09:28:22.146Z,14.90
2019-05-29T09:30:58.194Z,15.00
2019-05-29T09:33:46.232Z,15.10
2019-05-29T09:36:33.008Z,15.20
2019-05-29T09:39:29.941Z,15.30
2019-05-29T09:42:18.500Z,15.40
2019-05-29T09:45:08.537Z,15.60
2019-05-29T09:47:57.885Z,15.60
2019-05-29T09:50:49.377Z,15.60
2019-05-29T09:53:28.833Z,15.70
2019-05-29T09:56:26.700Z,15.70
2019-05-29T09:59:10.930Z,15.80
2019-05-29T10:01:59.514Z,15.80
2019-05-29T10:04:31.866Z,15.80
2019-05-29T10:07:09.425Z,15.90
2019-05-29T10:09:47.060Z,16.00
2019-05-29T10:12:24.590Z,16.30
2019-05-29T10:15:02.672Z,16.50
2019-05-29T10:17:39.713Z,16.70
2019-05-29T10:20:17.261Z,16.70
2019-05-29T10:22:55.661Z,16.60
2019-05-29T10:25:32.473Z,16.50
2019-05-29T10:28:10.015Z,16.50
2019-05-29T10:30:48.251Z,16.40
2019-05-29T10:33:35.792Z,16.50
2019-05-29T10:36:20.580Z,16.70
2019-05-29T10:39:12.941Z,17.00
2019-05-29T10:42:07.756Z,17.10
2019-05-29T10:45:04.698Z,17.00
2019-05-29T10:47:52.186Z,17.00
2019-05-29T10:50:28.606Z,17.30
2019-05-29T10:53:14.849Z,17.60
2019-05-29T10:55:56.410Z,17.60
2019-05-29T10:58:59.123Z,17.50
2019-05-29T11:01:37.814Z,17.50
2019-05-29T11:04:24.341Z,17.40
2019-05-29T11:07:01.743Z,17.50
2019-05-29T11:09:44.665Z,17.60
2019-05-29T11:12:16.992Z,17.70
2019-05-29T11:14:55.046Z,18.10
2019-05-29T11:17:32.048Z,18.40
2019-05-29T11:20:10.268Z,18.70
2019-05-29T11:22:47.821Z,19.00
2019-05-29T11:25:27.721Z,19.20
2019-05-29T11:28:02.950Z,19.50
2019-05-29T11:30:45.345Z,19.40
2019-05-29T11:33:39.779Z,19.60
2019-05-29T11:36:22.036Z,19.80
2019-05-29T11:39:10.462Z,20.30
2019-05-29T11:42:28.320Z,20.00
2019-05-29T11:45:09.258Z,19.70
2019-05-29T11:47:54.734Z,20.10
2019-05-29T11:50:36.110Z,20.70
2019-05-29T11:53:21.151Z,21.30
2019-05-29T11:56:02.087Z,23.60
2019-05-29T11:58:38.661Z,27.30
2019-05-29T12:01:16.371Z,30.00
2019-05-29T12:04:25.376Z,31.90
2019-05-29T12:06:51.172Z,32.60
2019-05-29T12:09:32.902Z,32.70
2019-05-29T12:12:06.096Z,32.30
2019-05-29T12:14:59.080Z,31.30
2019-05-29T12:17:28.452Z,30.80
2019-05-29T12:20:27.207Z,28.90
2019-05-29T12:23:22.831Z,27.20
2019-05-29T12:25:36.728Z,26.90
2019-05-29T12:28:14.473Z,27.50
2019-05-29T12:30:53.379Z,27.10
2019-05-29T12:33:40.976Z,26.40
2019-05-29T12:36:20.356Z,26.80
2019-05-29T12:39:05.479Z,28.40
2019-05-29T12:41:57.510Z,30.60
2019-05-29T12:44:53.523Z,32.90
2019-05-29T12:47:34.160Z,32.00
2019-05-29T12:50:26.766Z,29.00
2019-05-29T12:53:29.091Z,27.00
2019-05-29T12:55:53.965Z,27.60
2019-05-29T12:58:31.928Z,29.70
2019-05-29T13:01:11.771Z,32.10
2019-05-29T13:03:49.255Z,34.10
2019-05-29T13:06:26.783Z,35.10
2019-05-29T13:09:05.163Z,35.50
2019-05-29T13:11:42.637Z,33.70
2019-05-29T13:14:20.240Z,31.50
2019-05-29T13:16:58.790Z,32.10
2019-05-29T13:19:35.527Z,32.90
2019-05-29T13:22:14.763Z,31.40
2019-05-29T13:24:52.883Z,29.70
2019-05-29T13:27:29.906Z,28.70
2019-05-29T13:30:08.458Z,31.10
2019-05-29T13:33:03.082Z,33.70
2019-05-29T13:35:45.046Z,34.60
2019-05-29T13:38:29.288Z,32.40
2019-05-29T13:41:09.400Z,30.30
2019-05-29T13:43:58.386Z,28.50
2019-05-29T13:46:38.252Z,28.60
2019-05-29T13:49:33.002Z,32.30
2019-05-29T13:52:11.810Z,36.00
2019-05-29T13:54:57.488Z,38.80
2019-05-29T13:57:43.337Z,38.20
2019-05-29T14:00:40.940Z,35.50
2019-05-29T14:03:18.447Z,32.40
2019-05-29T14:05:56.089Z,29.80
2019-05-29T14:08:33.772Z,28.30
2019-05-29T14:11:11.598Z,27.20
2019-05-29T14:13:49.318Z,26.40
2019-05-29T14:16:26.818Z,28.50
2019-05-29T14:19:04.819Z,31.60
2019-05-29T14:21:42.161Z,34.30
2019-05-29T14:24:29.249Z,36.00
2019-05-29T14:26:57.396Z,35.90
2019-05-29T14:29:34.895Z,35.50
2019-05-29T14:32:28.398Z,34.00
2019-05-29T14:35:11.120Z,33.70
2019-05-29T14:37:49.132Z,34.80
2019-05-29T14:40:49.831Z,36.00
2019-05-29T14:43:37.372Z,37.40
2019-05-29T14:46:19.316Z,38.70
2019-05-29T14:49:02.292Z,39.30
2019-05-29T14:51:47.913Z,39.10
2019-05-29T14:54:40.710Z,38.80
2019-05-29T14:57:17.406Z,38.20
2019-05-29T14:59:48.308Z,37.50
2019-05-29T15:02:24.690Z,37.40
2019-05-29T15:05:05.526Z,37.70
2019-05-29T15:07:41.860Z,38.20
2019-05-29T15:10:26.996Z,38.10
2019-05-29T15:12:59.136Z,37.80
2019-05-29T15:15:41.342Z,37.30
2019-05-29T15:18:20.435Z,37.10
2019-05-29T15:20:59.125Z,37.30
2019-05-29T15:23:36.912Z,37.90
2019-05-29T15:26:17.209Z,38.70
2019-05-29T15:28:59.945Z,39.00
2019-05-29T15:31:44.495Z,37.20
2019-05-29T15:34:25.619Z,35.30
2019-05-29T15:37:11.470Z,35.30
2019-05-29T15:40:17.089Z,36.00
2019-05-29T15:43:02.906Z,36.70
2019-05-29T15:45:50.101Z,37.50
2019-05-29T15:48:37.127Z,38.70
2019-05-29T15:51:48.766Z,39.00
2019-05-29T15:54:32.175Z,38.70
2019-05-29T15:57:17.975Z,35.70
2019-05-29T16:00:17.772Z,33.40
2019-05-29T16:02:54.955Z,32.90
2019-05-29T16:05:32.526Z,33.00
2019-05-29T16:08:10.256Z,31.10
2019-05-29T16:10:47.920Z,29.30
2019-05-29T16:13:25.701Z,28.70
2019-05-29T16:16:03.304Z,29.50
2019-05-29T16:18:40.882Z,31.50
2019-05-29T16:21:23.180Z,33.20
2019-05-29T16:24:05.899Z,32.20
2019-05-29T16:26:48.202Z,30.40
2019-05-29T16:29:27.490Z,28.90
2019-05-29T16:32:05.293Z,27.90
2019-05-29T16:34:43.868Z,28.40
2019-05-29T16:37:22.081Z,28.30
2019-05-29T16:40:02.077Z,27.30
2019-05-29T16:42:46.031Z,27.10
2019-05-29T16:45:25.280Z,28.30
2019-05-29T16:48:10.483Z,29.40
2019-05-29T16:50:48.594Z,30.70
2019-05-29T16:53:26.173Z,32.50
2019-05-29T16:56:03.959Z,34.10
2019-05-29T16:58:42.924Z,35.20
2019-05-29T17:01:21.793Z,36.30
2019-05-29T17:03:58.198Z,36.50
2019-05-29T17:06:35.751Z,35.40
2019-05-29T17:09:14.495Z,33.50
2019-05-29T17:11:51.582Z,31.70
2019-05-29T17:14:29.167Z,30.20
2019-05-29T17:17:06.830Z,28.80
2019-05-29T17:19:44.588Z,28.00
2019-05-29T17:22:22.839Z,28.80
2019-05-29T17:25:00.182Z,30.30
2019-05-29T17:27:37.910Z,32.00
2019-05-29T17:30:16.619Z,33.30
2019-05-29T17:32:54.124Z,33.50
2019-05-29T17:35:31.805Z,33.00
2019-05-29T17:38:10.652Z,32.50
2019-05-29T17:40:48.473Z,32.30
2019-05-29T17:43:28.620Z,31.10
2019-05-29T17:46:05.743Z,29.30
2019-05-29T17:48:43.898Z,27.50
2019-05-29T17:51:28.361Z,26.50
2019-05-29T17:54:18.187Z,26.90
2019-05-29T17:57:01.405Z,27.90
2019-05-29T17:59:44.827Z,28.90
2019-05-29T18:02:52.325Z,29.40
2019-05-29T18:05:32.887Z,30.00
2019-05-29T18:08:20.774Z,30.50
2019-05-29T18:10:58.617Z,30.50
2019-05-29T18:13:51.175Z,30.40
2019-05-29T18:16:30.543Z,30.20
2019-05-29T18:19:12.302Z,30.10
2019-05-29T18:21:50.731Z,30.00
2019-05-29T18:24:29.244Z,29.80
2019-05-29T18:27:08.304Z,29.30
2019-05-29T18:29:46.537Z,28.80
2019-05-29T18:32:25.006Z,28.50
2019-05-29T18:35:06.034Z,28.30
2019-05-29T18:37:44.312Z,28.00
2019-05-29T18:40:26.319Z,27.80
2019-05-29T18:43:04.193Z,27.50
2019-05-29T18:45:43.307Z,27.10
2019-05-29T18:48:27.262Z,26.70
2019-05-29T18:51:18.221Z,26.10
2019-05-29T18:53:55.139Z,25.50
2019-05-29T18:57:13.033Z,24.80
2019-05-29T18:59:29.557Z,23.90
2019-05-29T19:05:25.603Z,22.10
2019-05-29T19:08:10.481Z,21.20
2019-05-29T19:10:59.853Z,20.50
2019-05-29T19:13:52.694Z,19.80
2019-05-29T19:16:39.720Z,19.10
2019-05-29T19:19:24.181Z,18.40
2019-05-29T19:22:03.512Z,17.90
2019-05-29T19:24:41.352Z,17.40
2019-05-29T19:27:31.163Z,17.10
2019-05-29T19:29:57.676Z,16.70
2019-05-29T19:32:37.544Z,16.30
2019-05-29T19:35:15.534Z,16.00
2019-05-29T19:37:53.819Z,15.70
2019-05-29T19:40:32.548Z,15.30
2019-05-29T19:43:10.855Z,15.10
2019-05-29T19:45:50.041Z,14.80
2019-05-29T19:48:30.913Z,14.60
2019-05-29T19:51:25.134Z,14.40
2019-05-29T19:54:05.921Z,14.20
2019-05-29T19:57:06.013Z,14.00
2019-05-29T19:59:52.488Z,13.80
2019-05-29T20:02:45.322Z,13.70
2019-05-29T20:05:35.223Z,13.50
2019-05-29T20:08:13.039Z,13.30
2019-05-29T20:10:56.392Z,13.20
2019-05-29T20:13:37.992Z,13.00
2019-05-29T20:16:14.524Z,12.90
2019-05-29T20:18:54.036Z,12.70
2019-05-29T20:21:32.723Z,12.50
2019-05-29T20:24:10.356Z,12.30
2019-05-29T20:26:48.627Z,12.20
2019-05-29T20:29:27.104Z,12.00
2019-05-29T20:32:05.337Z,12.00
2019-05-29T20:34:44.801Z,11.90
2019-05-29T20:37:22.399Z,11.80
2019-05-29T20:40:00.000Z,11.70
2019-05-29T20:42:38.509Z,11.60
2019-05-29T20:45:15.319Z,11.50
2019-05-29T20:47:53.044Z,11.40
2019-05-29T20:50:30.887Z,11.30
2019-05-29T20:53:08.202Z,11.20
2019-05-29T20:55:45.796Z,11.20
2019-05-29T20:58:24.956Z,11.10
2019-05-29T21:01:03.178Z,11.10
2019-05-29T21:03:38.730Z,11.00
2019-05-29T21:06:16.164Z,11.00
2019-05-29T21:08:53.986Z,10.90
2019-05-29T21:11:33.207Z,10.80
2019-05-29T21:14:09.554Z,10.70
2019-05-29T21:16:47.110Z,10.60
2019-05-29T21:19:24.670Z,10.50
2019-05-29T21:22:02.567Z,10.40
2019-05-29T21:24:40.691Z,10.40
2019-05-29T21:27:17.893Z,10.30
2019-05-29T21:29:55.497Z,10.20
2019-05-29T21:32:33.182Z,10.10
2019-05-29T21:35:10.945Z,10.10
2019-05-29T21:37:48.629Z,10.00
2019-05-29T21:40:26.319Z,9.90
2019-05-29T21:43:03.981Z,9.90
2019-05-29T21:45:43.025Z,9.80
2019-05-29T21:48:19.266Z,9.80
2019-05-29T21:50:56.951Z,9.70
2019-05-29T21:53:34.556Z,9.60
2019-05-29T21:56:12.150Z,9.50
2019-05-29T21:59:03.209Z,9.50
2019-05-29T22:01:27.421Z,9.40
2019-05-29T22:04:05.094Z,9.30
2019-05-29T22:06:42.765Z,9.30
2019-05-29T22:09:20.178Z,9.20
2019-05-29T22:11:58.555Z,9.20
2019-05-29T22:14:35.565Z,9.20
2019-05-29T22:17:13.290Z,9.10
2019-05-29T22:19:50.855Z,9.10
2019-05-29T22:22:28.511Z,9.00
2019-05-29T22:25:06.720Z,8.90
2019-05-29T22:27:44.299Z,8.80
2019-05-29T22:30:21.836Z,8.70
2019-05-29T22:32:59.655Z,8.60
2019-05-29T22:35:37.051Z,8.60
2019-05-29T22:38:14.603Z,8.50
2019-05-29T22:40:53.655Z,8.50
2019-05-29T22:43:29.841Z,8.40
2019-05-29T22:46:07.456Z,8.40
2019-05-29T22:48:45.208Z,8.40
2019-05-29T22:51:22.993Z,8.30
2019-05-29T22:54:01.990Z,8.30
2019-05-29T22:56:38.492Z,8.30
2019-05-29T22:59:31.161Z,8.30
2019-05-29T23:01:54.091Z,8.20
2019-05-29T23:04:31.230Z,8.10
2019-05-29T23:07:08.844Z,8.10
2019-05-29T23:09:46.482Z,8.10
2019-05-29T23:12:24.014Z,8.00
2019-05-29T23:15:02.887Z,8.00
2019-05-29T23:17:39.254Z,8.00
2019-05-29T23:20:17.272Z,7.90
2019-05-29T23:22:54.937Z,7.90
2019-05-29T23:25:32.600Z,7.80
2019-05-29T23:28:10.174Z,7.80
2019-05-29T23:30:47.933Z,7.70
2019-05-29T23:33:25.544Z,7.70
2019-05-29T23:36:03.300Z,7.60
2019-05-29T23:38:40.645Z,7.50
2019-05-29T23:41:18.371Z,7.40
2019-05-29T23:43:57.385Z,7.40
2019-05-29T23:46:33.856Z,7.30
2019-05-29T23:49:11.436Z,7.30
2019-05-29T23:51:49.380Z,7.30
2019-05-29T23:54:26.984Z,7.20
2019-05-29T23:57:04.611Z,7.20
2019-05-29T23:59:42.304Z,7.20
